Time;durP1;ratioP1;P1;durP2;ratioP2;P2;SDS_P1;SDS_P2;PMS_P1;PMS_P2;Temp;Humidity;BMP_temperature;BMP_pressure;BME280_temperature;BME280_humidity;BME280_pressure;Samples;Min_cycle;Max_cycle;Signal;HPM_P1;HPM_P2
2021/08/08 00:02:16;;;;;;;1999.90;999.90;;;17.40;99.90;;;;;;6197025;23;20415;-69
2021/08/08 00:04:48;;;;;;;1999.90;999.90;;;17.30;99.90;;;;;;6161057;23;20439;-69
2021/08/08 00:07:16;;;;;;;1999.90;999.90;;;17.30;99.90;;;;;;6197551;23;20351;-69
2021/08/08 00:09:45;;;;;;;1999.90;999.90;;;17.30;99.90;;;;;;6197123;23;20487;-69
2021/08/08 00:12:13;;;;;;;1999.90;999.90;;;17.20;99.90;;;;;;6197660;23;20309;-69
2021/08/08 00:14:42;;;;;;;1999.90;999.90;;;17.20;99.90;;;;;;6160365;23;20175;-69
2021/08/08 00:17:10;;;;;;;1999.90;999.90;;;17.10;99.90;;;;;;6197165;23;20400;-69
2021/08/08 00:19:38;;;;;;;1999.90;999.90;;;17.10;99.90;;;;;;6195209;23;20399;-69
2021/08/08 00:22:08;;;;;;;1999.90;999.90;;;17.10;99.90;;;;;;6186689;23;20189;-69
2021/08/08 00:24:36;;;;;;;1999.90;999.90;;;17.20;99.90;;;;;;6196592;23;20902;-69
2021/08/08 00:27:05;;;;;;;1999.90;999.90;;;17.10;99.90;;;;;;6196985;23;20432;-69
2021/08/08 00:29:34;;;;;;;1999.90;999.90;;;17.10;99.90;;;;;;6197407;23;20435;-69
2021/08/08 00:32:02;;;;;;;1999.90;999.90;;;16.90;99.90;;;;;;6186945;23;20438;-69
2021/08/08 00:34:30;;;;;;;1999.90;999.90;;;17.00;99.90;;;;;;6196684;23;20475;-69
2021/08/08 00:37:00;;;;;;;1999.90;999.90;;;16.90;99.90;;;;;;6160470;23;20403;-69
2021/08/08 00:39:31;;;;;;;1999.90;999.90;;;16.90;99.90;;;;;;6160429;23;20439;-69
2021/08/08 00:42:00;;;;;;;1999.90;999.90;;;16.80;99.90;;;;;;6155478;23;20444;-69
2021/08/08 00:44:29;;;;;;;1999.90;999.90;;;16.80;99.90;;;;;;6155561;23;20499;-69
2021/08/08 00:46:58;;;;;;;1999.90;999.90;;;16.70;99.90;;;;;;6155726;23;20617;-69
2021/08/08 00:49:28;;;;;;;1999.90;999.90;;;16.70;99.90;;;;;;6155486;23;20500;-69
2021/08/08 00:51:59;;;;;;;1999.90;999.90;;;16.70;99.90;;;;;;6156277;23;20444;-69
2021/08/08 00:54:32;;;;;;;1999.90;999.90;;;16.70;99.90;;;;;;6155069;23;20413;-69
2021/08/08 00:57:01;;;;;;;1999.90;999.90;;;16.60;99.90;;;;;;6155052;23;20471;-69
2021/08/08 00:59:31;;;;;;;1999.90;999.90;;;16.60;99.90;;;;;;6155252;23;20456;-69
2021/08/08 01:02:02;;;;;;;1999.90;999.90;;;16.60;99.90;;;;;;6155246;23;20471;-69
2021/08/08 01:04:35;;;;;;;1999.90;999.90;;;16.60;99.90;;;;;;6155260;23;20420;-69
2021/08/08 01:07:12;;;;;;;1999.90;999.90;;;16.50;99.90;;;;;;6155263;23;20416;-69
2021/08/08 01:09:49;;;;;;;1999.90;999.90;;;16.50;99.90;;;;;;6155251;23;20453;-69
2021/08/08 01:12:19;;;;;;;1999.90;999.90;;;16.50;99.90;;;;;;6155154;23;20437;-69
2021/08/08 01:14:52;;;;;;;1999.90;999.90;;;16.50;99.90;;;;;;6155279;23;20423;-69
2021/08/08 01:17:24;;;;;;;1999.90;999.90;;;16.40;99.90;;;;;;6156266;23;20724;-69
2021/08/08 01:19:58;;;;;;;1999.90;999.90;;;16.40;99.90;;;;;;6155520;23;20895;-69
2021/08/08 01:22:34;;;;;;;1999.90;999.90;;;16.40;99.90;;;;;;6154063;23;20411;-69
2021/08/08 01:25:07;;;;;;;1999.90;999.90;;;16.50;99.90;;;;;;6154886;23;20169;-69
2021/08/08 01:27:35;;;;;;;1999.90;999.90;;;16.50;99.90;;;;;;6155135;23;20430;-69
2021/08/08 01:30:04;;;;;;;1999.90;999.90;;;16.50;99.90;;;;;;6155407;23;20413;-69
2021/08/08 01:32:33;;;;;;;1999.90;999.90;;;16.40;99.90;;;;;;6154981;23;20440;-69
2021/08/08 01:35:03;;;;;;;1999.90;999.90;;;16.40;99.90;;;;;;6155656;23;20725;-69
2021/08/08 01:37:32;;;;;;;1999.90;999.90;;;16.30;99.90;;;;;;6155151;23;20803;-69
2021/08/08 01:40:09;;;;;;;1999.90;999.90;;;16.30;99.90;;;;;;6167520;23;20405;-69
2021/08/08 01:42:39;;;;;;;1999.90;999.90;;;16.30;99.90;;;;;;6161253;23;20406;-69
2021/08/08 01:45:10;;;;;;;1999.90;999.90;;;16.30;99.90;;;;;;6159925;23;20413;-69
2021/08/08 01:47:44;;;;;;;1999.90;999.90;;;16.20;99.90;;;;;;6159169;23;20407;-69
2021/08/08 01:50:21;;;;;;;1999.90;999.90;;;16.30;99.90;;;;;;6159708;23;20165;-69
2021/08/08 01:52:51;;;;;;;1999.90;999.90;;;16.30;99.90;;;;;;6158683;23;20785;-69
2021/08/08 01:55:27;;;;;;;1999.90;999.90;;;16.30;99.90;;;;;;6159854;23;20167;-69
2021/08/08 01:58:00;;;;;;;1999.90;999.90;;;16.30;99.90;;;;;;6159961;23;20435;-68
2021/08/08 02:00:30;;;;;;;1999.90;999.90;;;16.20;99.90;;;;;;6159759;23;20919;-69
2021/08/08 02:03:09;;;;;;;1999.90;999.90;;;16.20;99.90;;;;;;6159580;23;20442;-68
2021/08/08 02:05:42;;;;;;;1999.90;999.90;;;16.20;99.90;;;;;;6159408;23;20406;-69
2021/08/08 02:08:13;;;;;;;1999.90;999.90;;;16.20;99.90;;;;;;6159445;23;20408;-68
2021/08/08 02:10:53;;;;;;;1999.90;999.90;;;16.10;99.90;;;;;;6159601;23;20382;-69
2021/08/08 02:13:29;;;;;;;1999.90;999.90;;;16.10;99.90;;;;;;6159594;23;20385;-69
2021/08/08 02:16:00;;;;;;;1999.90;999.90;;;16.10;99.90;;;;;;6159849;23;20407;-71
2021/08/08 02:18:28;;;;;;;1999.90;999.90;;;16.10;99.90;;;;;;6159129;23;20736;-69
2021/08/08 02:20:56;;;;;;;1999.90;999.90;;;16.10;99.90;;;;;;6159464;23;20172;-69
2021/08/08 02:23:25;;;;;;;1999.90;999.90;;;16.10;99.90;;;;;;6159428;23;20421;-69
2021/08/08 02:25:58;;;;;;;1999.90;999.90;;;16.10;99.90;;;;;;6159492;23;20431;-69
2021/08/08 02:28:30;;;;;;;1999.90;999.90;;;16.10;99.90;;;;;;6160387;23;20401;-69
2021/08/08 02:30:59;;;;;;;1999.90;999.90;;;16.10;99.90;;;;;;6159376;23;20460;-69
2021/08/08 02:33:29;;;;;;;1999.90;999.90;;;16.00;99.90;;;;;;6159316;23;20415;-69
2021/08/08 02:35:58;;;;;;;1999.90;999.90;;;16.10;99.90;;;;;;6160142;23;20743;-69
2021/08/08 02:38:32;;;;;;;1999.90;999.90;;;16.10;99.90;;;;;;6159482;23;20395;-69
2021/08/08 02:41:04;;;;;;;1999.90;999.90;;;16.10;99.90;;;;;;6154376;23;20399;-69
2021/08/08 02:43:33;;;;;;;1999.90;999.90;;;16.10;99.90;;;;;;6154637;23;20958;-69
2021/08/08 02:46:01;;;;;;;1999.90;999.90;;;16.00;99.90;;;;;;6154392;23;20822;-70
2021/08/08 02:48:30;;;;;;;1999.90;999.90;;;16.00;99.90;;;;;;6154404;23;20417;-69
2021/08/08 02:50:59;;;;;;;1999.90;999.90;;;16.00;99.90;;;;;;6155799;23;20384;-69
2021/08/08 02:53:30;;;;;;;1999.90;999.90;;;16.00;99.90;;;;;;6154740;23;20442;-69
2021/08/08 02:55:58;;;;;;;1999.90;999.90;;;16.00;99.90;;;;;;6153822;23;20408;-69
2021/08/08 02:58:29;;;;;;;1999.90;999.90;;;16.10;99.90;;;;;;6154236;23;20173;-68
2021/08/08 03:00:58;;;;;;;1999.90;999.90;;;16.10;99.90;;;;;;6165698;23;20498;-69
2021/08/08 03:03:27;;;;;;;1999.90;999.90;;;16.00;99.90;;;;;;6165809;23;20783;-68
2021/08/08 03:05:55;;;;;;;1999.90;999.90;;;16.10;99.90;;;;;;6154356;23;20395;-69
2021/08/08 03:08:23;;;;;;;1999.90;999.90;;;16.10;99.90;;;;;;6165486;23;20484;-69
2021/08/08 03:10:51;;;;;;;1999.90;999.90;;;16.10;99.90;;;;;;6165527;23;20792;-69
2021/08/08 03:13:20;;;;;;;1999.90;999.90;;;16.10;99.90;;;;;;6155090;23;20467;-69
2021/08/08 03:15:49;;;;;;;1999.90;999.90;;;16.10;99.90;;;;;;6154140;23;20441;-69
2021/08/08 03:18:18;;;;;;;1999.90;999.90;;;16.10;99.90;;;;;;6165523;23;20372;-69
2021/08/08 03:20:46;;;;;;;1999.90;999.90;;;16.10;99.90;;;;;;6154449;23;20409;-69
2021/08/08 03:23:17;;;;;;;1999.90;999.90;;;16.10;99.90;;;;;;6153166;23;20436;-69
2021/08/08 03:25:46;;;;;;;1999.90;999.90;;;16.10;99.90;;;;;;6154014;23;20237;-69
2021/08/08 03:28:14;;;;;;;1999.90;999.90;;;16.10;99.90;;;;;;6164998;23;20391;-69
2021/08/08 03:30:43;;;;;;;1999.90;999.90;;;16.10;99.90;;;;;;6154059;23;20243;-69
2021/08/08 03:33:12;;;;;;;1999.90;999.90;;;16.10;99.90;;;;;;6154055;23;20418;-69
2021/08/08 03:35:41;;;;;;;1999.90;999.90;;;16.10;99.90;;;;;;6154045;23;20438;-69
2021/08/08 03:38:09;;;;;;;1999.90;999.90;;;16.10;99.90;;;;;;6153836;23;20391;-69
2021/08/08 03:40:38;;;;;;;1999.90;999.90;;;16.10;99.90;;;;;;6154106;23;20437;-69
2021/08/08 03:43:07;;;;;;;1999.90;999.90;;;16.10;99.90;;;;;;6153933;23;20430;-69
2021/08/08 03:45:35;;;;;;;1999.90;999.90;;;16.20;99.90;;;;;;6153886;23;20421;-69
2021/08/08 03:48:04;;;;;;;1999.90;999.90;;;16.20;99.90;;;;;;6153881;23;20440;-68
2021/08/08 03:50:35;;;;;;;1999.90;999.90;;;16.20;99.90;;;;;;6165460;23;20374;-69
2021/08/08 03:53:03;;;;;;;1999.90;999.90;;;16.20;99.90;;;;;;6165263;23;20436;-69
2021/08/08 03:55:31;;;;;;;1999.90;999.90;;;16.20;99.90;;;;;;6153968;23;20383;-69
2021/08/08 03:58:00;;;;;;;1999.90;999.90;;;16.20;99.90;;;;;;6165639;23;20406;-70
2021/08/08 04:00:28;;;;;;;1999.90;999.90;;;16.20;99.90;;;;;;6153943;23;20409;-71
2021/08/08 04:02:57;;;;;;;1999.90;999.90;;;16.20;99.90;;;;;;6153791;23;20422;-70
2021/08/08 04:05:26;;;;;;;1999.90;999.90;;;16.10;99.90;;;;;;6153645;23;20413;-70
2021/08/08 04:07:56;;;;;;;1999.90;999.90;;;16.20;99.90;;;;;;6153776;23;20440;-70
2021/08/08 04:10:25;;;;;;;1999.90;999.90;;;16.10;99.90;;;;;;6153761;23;20421;-69
2021/08/08 04:12:53;;;;;;;1999.90;999.90;;;16.20;99.90;;;;;;6153744;23;20440;-69
2021/08/08 04:15:22;;;;;;;1999.90;999.90;;;16.10;99.90;;;;;;6154081;23;20417;-69
2021/08/08 04:17:51;;;;;;;1999.90;999.90;;;16.10;99.90;;;;;;6154010;23;20390;-69
2021/08/08 04:20:22;;;;;;;1999.90;999.90;;;16.10;99.90;;;;;;6153873;23;20404;-69
2021/08/08 04:22:50;;;;;;;1999.90;999.90;;;16.10;99.90;;;;;;6153700;23;20440;-69
2021/08/08 04:25:20;;;;;;;1999.90;999.90;;;16.10;99.90;;;;;;6165346;23;20452;-69
2021/08/08 04:27:48;;;;;;;1999.90;999.90;;;16.20;99.90;;;;;;6154929;23;20555;-69
2021/08/08 04:30:17;;;;;;;1999.90;999.90;;;16.20;99.90;;;;;;6165788;23;20387;-69
2021/08/08 04:32:45;;;;;;;1999.90;999.90;;;16.20;99.90;;;;;;6167131;23;20195;-69
2021/08/08 04:35:14;;;;;;;1999.90;999.90;;;16.10;99.90;;;;;;6155235;23;20511;-69
2021/08/08 04:37:42;;;;;;;1999.90;999.90;;;16.20;99.90;;;;;;6155530;23;20484;-69
2021/08/08 04:40:12;;;;;;;1999.90;999.90;;;16.10;99.90;;;;;;6158572;23;20472;-69
2021/08/08 04:42:41;;;;;;;1999.90;999.90;;;16.10;99.90;;;;;;6161015;23;20434;-69
2021/08/08 04:45:10;;;;;;;1999.90;999.90;;;16.20;99.90;;;;;;6160863;23;20414;-69
2021/08/08 04:47:41;;;;;;;1999.90;999.90;;;16.20;99.90;;;;;;6160366;23;20433;-69
2021/08/08 04:50:11;;;;;;;1999.90;999.90;;;16.20;99.90;;;;;;6161660;23;20732;-69
2021/08/08 04:52:41;;;;;;;1999.90;999.90;;;16.20;99.90;;;;;;6160328;23;20436;-69
2021/08/08 04:55:10;;;;;;;1999.90;999.90;;;16.10;99.90;;;;;;6160232;23;20969;-69
2021/08/08 04:57:38;;;;;;;1999.90;999.90;;;16.20;99.90;;;;;;6196134;23;20372;-69
2021/08/08 05:00:09;;;;;;;1999.90;999.90;;;16.10;99.90;;;;;;6159222;23;20782;-69
2021/08/08 05:02:43;;;;;;;1999.90;999.90;;;16.20;99.90;;;;;;6160116;23;20212;-69
2021/08/08 05:05:12;;;;;;;1999.90;999.90;;;16.20;99.90;;;;;;6196662;23;20400;-69
2021/08/08 05:07:41;;;;;;;1999.90;999.90;;;16.30;99.90;;;;;;6160164;23;20197;-69
2021/08/08 05:10:13;;;;;;;1999.90;999.90;;;16.30;99.90;;;;;;6160149;23;20444;-69
2021/08/08 05:12:43;;;;;;;1999.90;999.90;;;16.30;99.90;;;;;;6160179;23;20418;-69
2021/08/08 05:15:13;;;;;;;1999.90;999.90;;;16.30;99.90;;;;;;6160327;23;20390;-69
2021/08/08 05:17:41;;;;;;;1999.90;999.90;;;16.30;99.90;;;;;;6160211;23;20412;-69
2021/08/08 05:20:11;;;;;;;1999.90;999.90;;;16.30;99.90;;;;;;6196237;23;20475;-69
2021/08/08 05:22:39;;;;;;;1999.90;999.90;;;16.30;99.90;;;;;;6159743;23;20435;-70
2021/08/08 05:25:09;;;;;;;1999.90;999.90;;;16.30;99.90;;;;;;6160147;23;20409;-69
2021/08/08 05:27:37;;;;;;;1999.90;999.90;;;16.30;99.90;;;;;;6159788;23;20421;-70
2021/08/08 05:30:13;;;;;;;1999.90;999.90;;;16.30;99.90;;;;;;6160142;23;20668;-69
2021/08/08 05:32:41;;;;;;;1999.90;999.90;;;16.30;99.90;;;;;;6161067;23;20442;-69
2021/08/08 05:35:11;;;;;;;1999.90;999.90;;;16.30;99.90;;;;;;6159827;23;20416;-69
2021/08/08 05:37:39;;;;;;;1999.90;999.90;;;16.40;99.90;;;;;;6159895;23;20466;-69
2021/08/08 05:40:09;;;;;;;1999.90;999.90;;;16.30;99.90;;;;;;6158182;23;20413;-69
2021/08/08 05:42:48;;;;;;;1999.90;999.90;;;16.40;99.90;;;;;;6159582;23;20234;-69
2021/08/08 05:45:21;;;;;;;1999.90;999.90;;;16.50;99.90;;;;;;6159738;23;20805;-69
2021/08/08 05:47:50;;;;;;;1999.90;999.90;;;16.50;99.90;;;;;;6159598;23;20435;-69
2021/08/08 05:50:23;;;;;;;1999.90;999.90;;;16.50;99.90;;;;;;6159735;23;20404;-69
2021/08/08 05:52:53;;;;;;;1999.90;999.90;;;16.40;99.90;;;;;;6160056;23;20468;-69
2021/08/08 05:55:22;;;;;;;1999.90;999.90;;;16.40;99.90;;;;;;6159688;23;20420;-69
2021/08/08 05:57:50;;;;;;;1999.90;999.90;;;16.40;99.90;;;;;;6159696;23;20454;-69
2021/08/08 06:00:22;;;;;;;1999.90;999.90;;;16.40;99.90;;;;;;6159668;23;20491;-69
2021/08/08 06:02:56;;;;;;;1999.90;999.90;;;16.40;99.90;;;;;;6196623;23;20499;-69
2021/08/08 06:05:28;;;;;;;1999.90;999.90;;;16.40;99.90;;;;;;6159493;23;20422;-69
2021/08/08 06:07:58;;;;;;;1999.90;999.90;;;16.40;99.90;;;;;;6159550;23;20447;-69
2021/08/08 06:10:27;;;;;;;1999.90;999.90;;;16.50;99.90;;;;;;6159675;23;20422;-69
2021/08/08 06:12:55;;;;;;;1999.90;999.90;;;16.50;99.90;;;;;;6158507;23;20480;-69
2021/08/08 06:15:25;;;;;;;1999.90;999.90;;;16.50;99.90;;;;;;6159530;23;20173;-69
2021/08/08 06:17:53;;;;;;;1999.90;999.90;;;16.60;99.90;;;;;;6195913;23;20423;-69
2021/08/08 06:20:23;;;;;;;1999.90;999.90;;;16.70;99.90;;;;;;6159628;23;20386;-69
2021/08/08 06:22:52;;;;;;;1999.90;999.90;;;16.70;99.90;;;;;;6159576;23;20524;-69
2021/08/08 06:25:21;;;;;;;1999.90;999.90;;;16.70;99.90;;;;;;6159423;23;20445;-69
2021/08/08 06:27:49;;;;;;;1999.90;999.90;;;16.70;99.90;;;;;;6159325;23;20439;-69
2021/08/08 06:30:19;;;;;;;1999.90;999.90;;;16.80;99.90;;;;;;6159204;23;20461;-69
2021/08/08 06:32:50;;;;;;;1999.90;999.90;;;16.80;99.90;;;;;;6159132;23;20442;-69
2021/08/08 06:35:19;;;;;;;1999.90;999.90;;;16.80;99.90;;;;;;6160433;23;20382;-68
2021/08/08 06:37:48;;;;;;;1999.90;999.90;;;16.80;99.90;;;;;;6159324;23;20411;-69
2021/08/08 06:40:17;;;;;;;1999.90;999.90;;;16.80;99.90;;;;;;6190682;23;20415;-69
2021/08/08 06:42:46;;;;;;;1999.90;999.90;;;16.80;99.90;;;;;;6158761;23;20429;-69
2021/08/08 06:45:17;;;;;;;1999.90;999.90;;;16.80;99.90;;;;;;6159261;23;20168;-69
2021/08/08 06:47:46;;;;;;;1999.90;999.90;;;16.80;99.90;;;;;;6159034;23;20514;-69
2021/08/08 06:50:17;;;;;;;1999.90;999.90;;;16.80;99.90;;;;;;6158926;23;20512;-69
2021/08/08 06:52:45;;;;;;;1999.90;999.90;;;16.80;99.90;;;;;;6159338;23;20467;-69
2021/08/08 06:55:13;;;;;;;1999.90;999.90;;;16.80;99.90;;;;;;6159295;23;20849;-69
2021/08/08 06:57:41;;;;;;;1999.90;999.90;;;16.80;99.90;;;;;;6159235;23;20880;-69
2021/08/08 07:00:14;;;;;;;1999.90;999.90;;;16.80;99.90;;;;;;6160352;23;20408;-69
2021/08/08 07:02:43;;;;;;;1999.90;999.90;;;16.80;99.90;;;;;;6159282;23;20940;-69
2021/08/08 07:05:11;;;;;;;1999.90;999.90;;;16.80;99.90;;;;;;6159192;23;20390;-69
2021/08/08 07:07:41;;;;;;;1999.90;999.90;;;16.80;99.90;;;;;;6159323;23;20420;-69
2021/08/08 07:10:10;;;;;;;1999.90;999.90;;;16.80;99.90;;;;;;6195235;23;20451;-69
2021/08/08 07:12:39;;;;;;;1999.90;999.90;;;16.80;99.90;;;;;;6194906;23;20395;-69
2021/08/08 07:15:09;;;;;;;1999.90;999.90;;;16.80;99.90;;;;;;6159062;23;20231;-69
2021/08/08 07:17:39;;;;;;;1999.90;999.90;;;16.80;99.90;;;;;;6158585;23;20415;-69
2021/08/08 07:20:08;;;;;;;1999.90;999.90;;;16.80;99.90;;;;;;6158999;23;20388;-69
2021/08/08 07:22:37;;;;;;;1999.90;999.90;;;16.80;99.90;;;;;;6159179;23;20439;-69
2021/08/08 07:25:08;;;;;;;1999.90;999.90;;;16.90;99.90;;;;;;6159069;23;20433;-69
2021/08/08 07:27:36;;;;;;;1999.90;999.90;;;16.90;99.90;;;;;;6160333;23;20776;-69
2021/08/08 07:30:06;;;;;;;1999.90;999.90;;;16.80;99.90;;;;;;6158711;23;20741;-69
2021/08/08 07:32:36;;;;;;;1999.90;999.90;;;16.80;99.90;;;;;;6159086;23;20982;-69
2021/08/08 07:35:05;;;;;;;1999.90;999.90;;;16.80;99.90;;;;;;6158965;23;20508;-69
2021/08/08 07:37:34;;;;;;;1999.90;999.90;;;16.80;99.90;;;;;;6159027;23;20481;-69
2021/08/08 07:40:02;;;;;;;1999.90;999.90;;;16.80;99.90;;;;;;6158815;23;20393;-69
2021/08/08 07:42:32;;;;;;;1999.90;999.90;;;16.80;99.90;;;;;;6158911;23;20447;-69
2021/08/08 07:45:00;;;;;;;1999.90;999.90;;;16.80;99.90;;;;;;6158979;23;20724;-69
2021/08/08 07:47:28;;;;;;;1999.90;999.90;;;16.90;99.90;;;;;;6193781;23;20431;-69
2021/08/08 07:49:56;;;;;;;1999.90;999.90;;;16.90;99.90;;;;;;6195123;23;20191;-69
2021/08/08 07:52:26;;;;;;;1999.90;999.90;;;17.00;99.90;;;;;;6157580;23;20449;-69
2021/08/08 07:54:56;;;;;;;1999.90;999.90;;;17.00;99.90;;;;;;6158711;23;20184;-69
2021/08/08 07:57:25;;;;;;;1999.90;999.90;;;17.10;99.90;;;;;;6160328;23;20415;-69
2021/08/08 07:59:54;;;;;;;1999.90;999.90;;;17.10;99.90;;;;;;6158834;23;20412;-69
2021/08/08 08:02:23;;;;;;;1999.90;999.90;;;17.10;99.90;;;;;;6195145;23;20912;-69
2021/08/08 08:04:51;;;;;;;1999.90;999.90;;;17.10;99.90;;;;;;6195921;23;20731;-69
2021/08/08 08:07:19;;;;;;;1999.90;999.90;;;17.10;99.90;;;;;;6160802;23;20899;-69
2021/08/08 08:09:47;;;;;;;1999.90;999.90;;;17.10;99.90;;;;;;6160691;23;20470;-69
2021/08/08 08:12:16;;;;;;;1999.90;999.90;;;17.10;99.90;;;;;;6160631;23;20977;-69
2021/08/08 08:14:44;;;;;;;1999.90;999.90;;;17.10;99.90;;;;;;6160697;23;20422;-69
2021/08/08 08:17:14;;;;;;;1999.90;999.90;;;17.10;99.90;;;;;;6160649;23;20419;-69
2021/08/08 08:19:42;;;;;;;1999.90;999.90;;;17.10;99.90;;;;;;6160462;23;20830;-69
2021/08/08 08:22:10;;;;;;;1999.90;999.90;;;17.10;99.90;;;;;;6159578;23;20443;-69
2021/08/08 08:24:39;;;;;;;1999.90;999.90;;;17.10;99.90;;;;;;6160640;23;20894;-69
2021/08/08 08:27:07;;;;;;;1999.90;999.90;;;17.20;99.90;;;;;;6159848;23;20527;-69
2021/08/08 08:29:36;;;;;;;1999.90;999.90;;;17.20;99.90;;;;;;6160446;23;20199;-68
2021/08/08 08:32:04;;;;;;;1999.90;999.90;;;17.20;99.90;;;;;;6160512;23;20751;-69
2021/08/08 08:34:34;;;;;;;1999.90;999.90;;;17.30;99.90;;;;;;6160541;23;20498;-69
2021/08/08 08:37:03;;;;;;;1999.90;999.90;;;17.30;99.90;;;;;;6160450;23;20414;-69
2021/08/08 08:39:31;;;;;;;1999.90;999.90;;;17.30;99.90;;;;;;6160923;23;20416;-69
2021/08/08 08:42:02;;;;;;;1999.90;999.90;;;17.30;99.90;;;;;;6155313;23;20959;-69
2021/08/08 08:44:31;;;;;;;1999.90;999.90;;;17.40;99.90;;;;;;6156176;23;20413;-69
2021/08/08 08:46:59;;;;;;;1999.90;999.90;;;17.40;99.90;;;;;;6155529;23;20415;-69
2021/08/08 08:49:28;;;;;;;1999.90;999.90;;;17.40;99.90;;;;;;6166770;23;20435;-69
2021/08/08 08:52:03;;;;;;;1999.90;999.90;;;17.50;99.90;;;;;;6155407;23;20436;-68
2021/08/08 08:54:34;;;;;;;1999.90;999.90;;;17.50;99.90;;;;;;6154819;23;20444;-68
2021/08/08 08:57:04;;;;;;;1999.90;999.90;;;17.60;99.90;;;;;;6155416;23;20177;-68
2021/08/08 08:59:33;;;;;;;1999.90;999.90;;;17.60;99.90;;;;;;6154739;23;20456;-69
2021/08/08 09:02:03;;;;;;;1999.90;999.90;;;17.70;99.90;;;;;;6156294;23;20279;-69
2021/08/08 09:04:31;;;;;;;1999.90;999.90;;;17.90;99.90;;;;;;6155287;23;20424;-69
2021/08/08 09:07:01;;;;;;;1999.90;999.90;;;18.00;99.90;;;;;;6155281;23;20890;-69
2021/08/08 09:09:30;;;;;;;1999.90;999.90;;;18.10;99.90;;;;;;6155024;23;20477;-69
2021/08/08 09:11:58;;;;;;;1999.90;999.90;;;18.20;99.90;;;;;;6155093;23;20440;-69
2021/08/08 09:14:27;;;;;;;1999.90;999.90;;;18.30;99.90;;;;;;6155554;23;20423;-69
2021/08/08 09:16:56;;;;;;;1999.90;999.90;;;18.30;99.90;;;;;;6156425;23;20791;-69
2021/08/08 09:19:32;;;;;;;1999.90;999.90;;;18.30;99.90;;;;;;6158444;23;20516;-69
2021/08/08 09:22:06;;;;;;;1999.90;999.90;;;18.40;99.90;;;;;;6168482;23;20497;-69
2021/08/08 09:24:41;;;;;;;1999.90;999.90;;;18.40;99.90;;;;;;6157734;23;20413;-69
2021/08/08 09:27:14;;;;;;;1999.90;999.90;;;18.50;99.90;;;;;;6156287;23;20417;-69
2021/08/08 09:29:48;;;;;;;1999.90;999.90;;;18.60;99.90;;;;;;6156881;23;20185;-69
2021/08/08 09:32:19;;;;;;;1999.90;999.90;;;18.70;99.90;;;;;;6155835;23;20427;-69
2021/08/08 09:34:52;;;;;;;1999.90;999.90;;;18.80;99.90;;;;;;6156367;23;20252;-69
2021/08/08 09:37:23;;;;;;;1999.90;999.90;;;18.90;99.90;;;;;;6167211;23;20459;-69
2021/08/08 09:39:53;;;;;;;1999.90;999.90;;;19.00;99.90;;;;;;6155128;23;20413;-69
2021/08/08 09:42:25;;;;;;;1999.90;999.90;;;19.10;99.90;;;;;;6130362;23;20436;-69
2021/08/08 09:44:56;;;;;;;1999.90;999.90;;;19.20;99.90;;;;;;6155211;23;20423;-68
2021/08/08 09:47:37;;;;;;;1999.90;999.90;;;19.20;99.90;;;;;;6166539;23;20413;-68
2021/08/08 09:50:08;;;;;;;1999.90;999.90;;;19.20;99.90;;;;;;6167100;23;20880;-69
2021/08/08 09:52:38;;;;;;;1999.90;999.90;;;19.30;99.90;;;;;;6130130;23;20759;-69
2021/08/08 09:55:18;;;;;;;1999.90;999.90;;;19.30;99.90;;;;;;6167106;23;20683;-69
2021/08/08 09:57:46;;;;;;;1999.90;999.90;;;19.50;99.90;;;;;;6166382;23;20377;-69
2021/08/08 10:00:26;;;;;;;1999.90;999.90;;;19.60;99.90;;;;;;6128920;23;20881;-69
2021/08/08 10:02:55;;;;;;;1999.90;999.90;;;19.70;99.90;;;;;;6166292;23;20649;-69
2021/08/08 10:05:25;;;;;;;1999.90;999.90;;;19.90;99.90;;;;;;6128897;23;20480;-69
2021/08/08 10:07:55;;;;;;;1999.90;999.90;;;20.00;99.90;;;;;;6156641;23;20400;-69
2021/08/08 10:10:25;;;;;;;1999.90;999.90;;;20.00;99.90;;;;;;6130088;23;20437;-69
2021/08/08 10:13:21;;;;;;;1999.90;999.90;;;20.00;99.90;;;;;;6165652;23;20416;-69
2021/08/08 10:15:52;;;;;;;1999.90;999.90;;;20.00;99.90;;;;;;6166364;23;20385;-69
2021/08/08 10:18:23;;;;;;;1999.90;999.90;;;19.90;99.90;;;;;;6166665;23;20417;-69
2021/08/08 10:20:53;;;;;;;1999.90;999.90;;;19.90;99.90;;;;;;6156492;23;20468;-69
2021/08/08 10:23:24;;;;;;;1999.90;999.90;;;19.80;99.90;;;;;;6166360;23;20430;-69
2021/08/08 10:25:53;;;;;;;1999.90;999.90;;;19.70;99.90;;;;;;6166337;23;20385;-69
2021/08/08 10:28:22;;;;;;;1999.90;999.90;;;19.70;99.90;;;;;;6165889;23;20499;-69
2021/08/08 10:30:51;;;;;;;1999.90;999.90;;;19.60;99.90;;;;;;6128763;23;20514;-69
2021/08/08 10:33:19;;;;;;;1999.90;999.90;;;19.70;99.90;;;;;;6165736;23;20602;-70
2021/08/08 10:35:51;;;;;;;1999.90;999.90;;;19.80;99.90;;;;;;6155674;23;20469;-69
2021/08/08 10:38:23;;;;;;;1999.90;999.90;;;19.90;99.90;;;;;;6166045;23;20384;-69
2021/08/08 10:40:52;;;;;;;1999.90;999.90;;;20.00;99.90;;;;;;6177488;23;20414;-69
2021/08/08 10:43:27;;;;;;;1999.90;999.90;;;20.10;99.90;;;;;;6195899;23;20490;-69
2021/08/08 10:46:05;;;;;;;1999.90;999.90;;;20.30;99.90;;;;;;6185725;23;20407;-69
2021/08/08 10:48:34;;;;;;;1999.90;999.90;;;20.40;99.90;;;;;;6195725;23;20396;-69
2021/08/08 10:51:03;;;;;;;1999.90;999.90;;;20.40;99.90;;;;;;6159250;23;20468;-69
2021/08/08 10:53:33;;;;;;;1999.90;999.90;;;20.50;99.90;;;;;;6195648;23;20396;-69
2021/08/08 10:56:06;;;;;;;1999.90;999.90;;;20.60;99.90;;;;;;6196060;23;20487;-69
2021/08/08 10:58:35;;;;;;;1999.90;999.90;;;20.60;99.90;;;;;;6185625;23;20426;-69
2021/08/08 11:01:16;;;;;;;1999.90;999.90;;;20.60;99.90;;;;;;6195271;23;20398;-69
2021/08/08 11:03:52;;;;;;;1999.90;999.90;;;20.60;99.90;;;;;;6195991;23;20407;-69
2021/08/08 11:06:23;;;;;;;1999.90;999.90;;;20.70;99.90;;;;;;6159260;23;20930;-69
2021/08/08 11:08:54;;;;;;;1999.90;999.90;;;20.70;99.90;;;;;;6194747;23;20399;-69
2021/08/08 11:11:24;;;;;;;1999.90;999.37;;;20.80;99.90;;;;;;6195679;23;20192;-69
2021/08/08 11:13:52;;;;;;;1999.90;999.90;;;20.90;99.90;;;;;;6196188;23;20407;-69
2021/08/08 11:16:21;;;;;;;1999.90;999.90;;;21.00;99.90;;;;;;6195954;23;20428;-69
2021/08/08 11:18:56;;;;;;;1999.90;999.90;;;21.00;99.90;;;;;;6195503;23;20396;-69
2021/08/08 11:21:26;;;;;;;1999.90;999.90;;;21.00;99.90;;;;;;6195057;23;20418;-69
2021/08/08 11:23:57;;;;;;;1999.90;999.90;;;21.00;99.90;;;;;;6195713;23;20875;-69
2021/08/08 11:26:26;;;;;;;1999.90;999.90;;;21.00;99.90;;;;;;6195751;23;20381;-69
2021/08/08 11:28:58;;;;;;;1999.90;999.90;;;21.00;99.90;;;;;;6195452;23;20406;-69
2021/08/08 11:31:27;;;;;;;1999.90;999.90;;;20.90;99.90;;;;;;6195559;23;20494;-69
2021/08/08 11:33:57;;;;;;;1999.90;999.90;;;20.90;99.90;;;;;;6185656;23;20176;-69
2021/08/08 11:36:31;;;;;;;1999.90;999.90;;;20.80;99.90;;;;;;6195160;23;20397;-69
2021/08/08 11:39:03;;;;;;;1999.90;999.90;;;20.80;99.90;;;;;;6195639;23;20475;-68
2021/08/08 11:41:31;;;;;;;1999.90;999.90;;;20.80;99.90;;;;;;6196958;23;20463;-69
2021/08/08 11:44:07;;;;;;;1999.90;999.90;;;20.80;99.90;;;;;;6197659;23;20407;-70
2021/08/08 11:46:36;;;;;;;1999.90;999.90;;;20.70;99.90;;;;;;6198091;23;20380;-69
2021/08/08 11:49:18;;;;;;;1999.90;999.90;;;20.70;99.90;;;;;;6197202;23;20399;-69
2021/08/08 11:51:56;;;;;;;1999.90;999.90;;;20.70;99.90;;;;;;6197092;23;20439;-69
2021/08/08 11:54:27;;;;;;;1999.90;997.57;;;20.60;99.90;;;;;;6197321;23;20435;-69
2021/08/08 11:56:56;;;;;;;1999.90;998.47;;;20.70;99.90;;;;;;6197669;23;20380;-69
2021/08/08 11:59:28;;;;;;;1999.90;997.13;;;20.70;99.90;;;;;;6160898;23;20440;-69
2021/08/08 12:02:00;;;;;;;1999.90;999.90;;;20.80;99.90;;;;;;6186494;23;20399;-69
2021/08/08 12:04:33;;;;;;;1987.67;951.60;;;20.90;99.90;;;;;;6197377;23;20160;-69
2021/08/08 12:07:04;;;;;;;1999.90;999.90;;;20.90;99.90;;;;;;6196405;23;20509;-69
2021/08/08 12:09:34;;;;;;;1999.90;926.27;;;21.00;99.90;;;;;;6160821;23;20565;-69
2021/08/08 12:12:05;;;;;;;1999.90;960.23;;;20.90;99.90;;;;;;6196967;23;20566;-69
2021/08/08 12:14:35;;;;;;;1999.90;999.90;;;20.90;99.90;;;;;;6197557;23;20413;-69